Airfield :
LOGIN :

Register | Disclaimer

   EN    FR    IT 

 










Legend :    VFR   Marginal VFR   IFR   Intensive IFR   Very Intensive IFR
Visi :
Ceiling :
>= 8 km
>= 3000ft
5 to 8 km
1000 to 3000 ft
1500m to 5 km
500 to 1000 ft
800 to 1500m
200 to 500 ft
< 800m
< 200 ft
Symbols :   Thunderstorms  Fog  Heavy snow  Heavy precipitations  Wind > 20 kt
SIGMETs :     Misc.  Thunderstorms  Icing  Turbulence  Mountain Waves  Volcanic Ashes







- Airport Elevation : 194 ft
- IATA code : ANE
- Download approach charts


LFJR - Angers Marcé

CURRENT METAR :
  • 221630Z AUTO 23005KT CAVOK 06/02 Q1004 TEMPO 4000 SHRA BKN008 SCT020TCU

EXPIRED METARs :
  • 221600Z AUTO 25008KT CAVOK 07/03 Q1004 TEMPO 4000 -SHRA SCT009 FEW026TCU
  • 221530Z AUTO 26008KT 230V290 9999 FEW047 OVC160 08/02 Q1004 TEMPO 4000 -SHRA SCT009 FEW026TCU
  • 221500Z AUTO 26008KT 220V280 9999 FEW029 OVC160 09/04 Q1005 TEMPO 4000 -SHRA SCT009 FEW026TCU
  • 221430Z AUTO 26008KT 230V290 9999 FEW023 SCT028 OVC160 08/04 Q1005 TEMPO 4000 -SHRA SCT009 FEW026TCU
  • 221400Z AUTO 26009KT 9999 SCT018 BKN024 BKN030 08/04 Q1005 TEMPO 4000 -SHRA BKN008 FEW026TCU

TAF TAF LFJR
Valid from the 22 at 15:00 until the 23 at 00:00 UTC


221400Z 2215/2224 28006KT 9999 SCT030
PROB30
TEMPO 2215/2218 4000 -SHRA SCT009 FEW026TCU
TEMPO 2218/2224 4000 SHRA BKN008 SCT020TCU
No reported NOTAMs for that airfield.



MET'MAP, your aeronautical weather chart ! - Copyright ORBIFLY December 2007 - Disclaimer

ORBIFLY MET'MAP TEAM :

Programming & Development : Alexandra Zaïnal
Concept & Development : Baudouin d'Aumeries
Co-Development & Prog : Marc-Olivier Méhu
Technical & hardware support : Manuel Goepfert

Contact : metmap@orbifly.com




SOURCES & CREDITS :

   NOAA